Data for 05/31/2017

Time Sea-Level Adjusted Pressure Absolute Pressure Temperature Relative Humidity Dew Point   
(mb) (inHg) (mb) (inHg) (C) (F) (%) (C) (F)
00:05 1018 30.06 847 25.01 13.3 55.9 54 4.3 39.7
00:10 1018 30.06 847 25.01 13.4 56.1 53 4.2 39.5
00:15 1018 30.06 847 25.01 13.5 56.2 54 4.3 39.7
00:20 1018 30.06 847 25.01 13.3 56 54 4.4 39.9
00:25 1018 30.06 847 25.01 13.3 55.9 55 4.5 40
00:30 1018 30.06 847 25.01 13.3 55.9 54 4.3 39.8
00:35 1018 30.06 847 25.01 12.9 55.3 55 4.1 39.4
00:40 1018 30.06 847 25.01 13.2 55.8 54 4.1 39.4
00:45 1018 30.06 847 25.01 13.4 56 53 4 39.3
00:50 1018 30.06 847 25.01 13.4 56.1 53 4.1 39.4
00:55 1017 30.03 847 25.01 13.2 55.8 53 3.9 39
01:00 1017 30.03 847 25.01 13 55.4 54 4 39.1
01:05 1017 30.03 846 24.98 13.1 55.5 52 3.5 38.2
01:10 1017 30.03 846 24.98 13.5 56.2 51 3.6 38.5
01:15 1017 30.03 846 24.98 13.6 56.5 51 3.7 38.6
01:20 1017 30.03 846 24.98 13.8 56.8 51 3.8 38.8
01:25 1017 30.03 846 24.98 13.8 56.8 50 3.7 38.6
01:30 1017 30.03 846 24.98 13.9 57 50 3.6 38.4
01:35 1017 30.03 846 24.98 14 57.3 49 3.7 38.6
01:40 1017 30.03 846 24.98 13.6 56.4 51 3.8 38.8
01:45 1017 30.03 846 24.98 13.2 55.7 52 3.5 38.2
01:50 1017 30.03 846 24.98 13.3 56 51 3.3 38
01:55 1017 30.03 846 24.98 13.5 56.2 51 3.7 38.7
02:00 1017 30.03 846 24.98 13.4 56.1 51 3.4 38.1
02:05 1017 30.03 846 24.98 13.7 56.7 49 3.1 37.6
02:10 1017 30.03 846 24.98 14 57.2 48 3.2 37.7
02:15 1017 30.03 846 24.98 14.1 57.3 48 3.2 37.8
02:20 1017 30.03 846 24.98 14.1 57.3 48 3.4 38.2
02:25 1017 30.03 846 24.98 13.8 56.9 50 3.5 38.3
02:30 1017 30.03 846 24.98 13.6 56.5 50 3.4 38.2
02:35 1017 30.03 846 24.98 13.4 56.1 51 3.5 38.4
02:40 1017 30.03 846 24.98 13.2 55.7 51 3.4 38
02:45 1017 30.03 846 24.98 13 55.5 52 3.3 38
02:50 1017 30.03 846 24.98 13 55.4 52 3.3 38
02:55 1017 30.03 846 24.98 13 55.3 51 3.3 37.9
03:00 1017 30.03 846 24.98 13 55.3 52 3.3 38
03:05 1017 30.03 846 24.98 13 55.4 51 3.2 37.8
03:10 1017 30.03 846 24.98 13 55.3 52 3.4 38
03:15 1017 30.03 846 24.98 12.8 55 52 3.2 37.8
03:20 1017 30.03 846 24.98 12.8 55.1 51 3.1 37.6
03:25 1017 30.03 846 24.98 12.6 54.6 52 3.1 37.7
03:30 1017 30.03 846 24.98 12.4 54.3 53 3.1 37.5
03:35 1017 30.03 846 24.98 12.3 54.1 53 3 37.4
03:40 1016 30 846 24.98 12.3 54.1 52 2.8 37.1
03:45 1017 30.03 846 24.98 12.1 53.9 53 2.9 37.2
03:50 1017 30.03 846 24.98 11.9 53.4 53 2.7 36.9
03:55 1016 30 846 24.98 12.1 53.7 52 2.6 36.7
04:00 1016 30 846 24.98 12.2 54 52 2.7 36.9
04:05 1017 30.03 846 24.98 12.3 54.1 51 2.6 36.6
04:10 1017 30.03 846 24.98 12.4 54.3 51 2.6 36.7
04:15 1017 30.03 846 24.98 12.3 54.1 52 2.8 37
04:20 1017 30.03 846 24.98 12 53.7 53 2.9 37.2
04:25 1017 30.03 846 24.98 11.7 53 55 2.9 37.2
04:30 1017 30.03 846 24.98 11.3 52.4 56 2.9 37.2
04:35 1017 30.03 846 24.98 11.1 52 55 2.6 36.6
04:40 1017 30.03 846 24.98 11.2 52.2 54 2.4 36.3
04:45 1017 30.03 846 24.98 11.4 52.4 54 2.4 36.4
04:50 1017 30.03 846 24.98 11.3 52.3 55 2.6 36.6
04:55 1017 30.03 846 24.98 11 51.7 57 2.8 37
05:00 1017 30.03 846 24.98 10.9 51.7 57 2.7 36.8
05:05 1017 30.03 846 24.98 11.2 52.2 55 2.6 36.6
05:10 1017 30.03 846 24.98 11.6 52.8 53 2.5 36.5
05:15 1017 30.03 846 24.98 11.9 53.4 53 2.7 36.8
05:20 1017 30.03 846 24.98 12 53.5 53 2.8 37.1
05:25 1017 30.03 846 24.98 12.1 53.7 53 2.8 37
05:30 1017 30.03 846 24.98 12.3 54.1 51 2.6 36.7
05:35 1017 30.03 846 24.98 12.5 54.5 52 2.9 37.2
05:40 1017 30.03 846 24.98 12.3 54.1 53 3.1 37.6
05:45 1017 30.03 846 24.98 12.1 53.7 54 3 37.4
05:50 1017 30.03 846 24.98 12.3 54.1 52 2.8 37.1
05:55 1017 30.03 846 24.98 12.4 54.2 54 3.4 38.1
06:00 1017 30.03 846 24.98 12.5 54.4 52 3 37.4
06:05 1017 30.03 846 24.98 12.8 55 52 3.2 37.7
06:10 1017 30.03 846 24.98 13 55.4 51 3.1 37.5
06:15 1017 30.03 846 24.98 13.4 56.2 51 3.5 38.2
06:20 1017 30.03 846 24.98 13.6 56.4 50 3.5 38.2
06:25 1017 30.03 846 24.98 13.8 56.9 50 3.6 38.5
06:30 1017 30.03 846 24.98 14.1 57.4 49 3.7 38.6
06:35 1017 30.03 846 24.98 14.6 58.2 45 2.9 37.3
06:40 1017 30.03 846 24.98 15 58.9 44 3 37.4
06:45 1017 30.03 846 24.98 14.9 58.8 46 3.4 38.2
06:50 1017 30.03 846 24.98 14.9 58.9 47 3.8 38.8
06:55 1017 30.03 846 24.98 15 59 46 3.6 38.5
07:00 1017 30.03 846 24.98 15.3 59.6 45 3.6 38.5
07:05 1017 30.03 846 24.98 15.6 60.1 44 3.5 38.3
07:10 1017 30.03 846 24.98 16 60.7 43 3.6 38.5
07:15 1017 30.03 846 24.98 16.2 61.2 43 3.7 38.6
07:20 1017 30.03 846 24.98 16.3 61.4 43 3.8 38.8
07:25 1017 30.03 846 24.98 16.7 62 42 3.7 38.7
07:30 1016 30 846 24.98 16.8 62.3 41 3.6 38.5
07:35 1016 30 846 24.98 17 62.6 41 3.8 38.8
07:40 1016 30 846 24.98 17.2 63 37 2.7 36.8
07:45 1016 30 846 24.98 16.9 62.4 39 3.1 37.6
07:50 1016 30 845 24.95 17.1 62.8 38 2.9 37.2
07:55 1016 30 845 24.95 17.4 63.3 38 3.1 37.5
08:00 1016 30 845 24.95 18.1 64.6 36 2.9 37.2
08:05 1016 30 845 24.95 18.4 65.2 36 3.3 38
08:10 1016 30 845 24.95 18.7 65.7 36 3.6 38.4
08:15 1016 30 845 24.95 19 66.2 34 3 37.4
08:20 1016 30 845 24.95 19.2 66.5 34 2.9 37.3
08:25 1016 30 845 24.95 19.4 66.9 33 2.9 37.2
08:30 1016 30 845 24.95 19.8 67.6 33 3.3 37.9
08:35 1016 30 845 24.95 20.4 68.7 36 4.9 40.9
08:40 1016 30 845 24.95 19.9 67.8 38 5.5 41.8
08:45 1016 30 845 24.95 19.3 66.7 39 5.2 41.4
08:50 1016 30 845 24.95 18.9 66.1 41 5.7 42.2
08:55 1016 30 845 24.95 18.8 65.9 42 5.6 42.1
09:00 1016 30 845 24.95 19.2 66.6 39 5.1 41.1
09:05 1016 30 845 24.95 20 68 40 6 42.9
09:10 1016 30 845 24.95 20.3 68.5 38 5.5 42
09:15 1016 30 845 24.95 19.9 67.9 40 5.9 42.7
09:20 1016 30 845 24.95 20.7 69.2 35 4.9 40.8
09:25 1016 30 845 24.95 20.7 69.3 37 5.5 42
09:30 1016 30 845 24.95 21.4 70.6 34 5.1 41.2
09:35 1016 30 845 24.95 22.5 72.4 32 5.4 41.7
09:40 1016 30 845 24.95 23 73.5 33 6 42.8
09:45 1016 30 845 24.95 22.7 72.9 33 5.9 42.7
09:50 1016 30 845 24.95 22.5 72.5 32 5.1 41.2
09:55 1016 30 845 24.95 22.4 72.4 34 5.8 42.4
10:00 1016 30 845 24.95 22.4 72.2 35 6.5 43.8
10:05 1016 30 845 24.95 22.9 73.2 33 5.8 42.5
10:10 1016 30 845 24.95 23.2 73.8 34 6.7 44
10:15 1016 30 845 24.95 22.8 73 33 5.9 42.5
10:20 1016 30 845 24.95 22.6 72.7 33 5.9 42.6
10:25 1016 30 845 24.95 23.8 74.8 31 5.7 42.3
10:30 1015 29.97 845 24.95 24.2 75.5 31 6.3 43.4
10:35 1015 29.97 845 24.95 24.3 75.8 30 6 42.9
10:40 1015 29.97 845 24.95 23.8 74.9 31 6.1 42.9
10:45 1015 29.97 845 24.95 23.6 74.5 31 5.7 42.3
10:50 1015 29.97 845 24.95 24 75.3 30 5.6 42.2
10:55 1015 29.97 845 24.95 24.5 76 29 5.7 42.2
11:00 1015 29.97 845 24.95 23.9 75.1 30 5.7 42.3
11:05 1015 29.97 844 24.92 24 75.3 30 5.5 41.9
11:10 1015 29.97 844 24.92 25.1 77.1 28 5.8 42.4
11:15 1015 29.97 844 24.92 24.8 76.6 30 6.4 43.5
11:20 1015 29.97 844 24.92 24.5 76.1 30 6 42.7
11:25 1015 29.97 844 24.92 24.6 76.4 28 5.3 41.5
11:30 1015 29.97 844 24.92 25.8 78.5 27 5.7 42.3
11:35 1015 29.97 844 24.92 26.7 80 26 6.1 42.9
11:40 1015 29.97 844 24.92 26.7 80.1 27 6.2 43.2
11:45 1015 29.97 844 24.92 26.3 79.4 27 6.2 43.2
11:50 1015 29.97 844 24.92 26.6 79.9 27 6.3 43.4
11:55 1015 29.97 844 24.92 25.9 78.7 29 6.8 44.2
12:00 1015 29.97 844 24.92 25.6 78 28 6 42.8
12:05 1015 29.97 844 24.92 25.8 78.4 27 5.9 42.6
12:10 1015 29.97 844 24.92 26 78.7 26 5.2 41.4
12:15 1015 29.97 844 24.92 26.4 79.4 27 5.9 42.6
12:20 1015 29.97 844 24.92 26 78.9 24 4 39.2
12:25 1015 29.97 844 24.92 26.2 79.1 25 4.9 40.8
12:30 1015 29.97 844 24.92 25.9 78.6 24 3.8 38.8
12:35 1015 29.97 844 24.92 26.5 79.7 18 0.6 33
12:40 1015 29.97 844 24.92 27.3 81.1 19 1.9 35.4
12:45 1014 29.94 844 24.92 28 82.4 18 2.1 35.8
12:50 1014 29.94 844 24.92 28.4 83.1 17 1.1 34
12:55 1014 29.94 843 24.89 28.7 83.7 16 0.9 33.7
13:00 1014 29.94 843 24.89 28.6 83.4 16 0.2 32.4
13:05 1014 29.94 843 24.89 28.1 82.5 17 1.4 34.6
13:10 1014 29.94 843 24.89 28.2 82.8 16 -0 32
13:15 1014 29.94 843 24.89 28.5 83.2 15 -0 31.9
13:20 1014 29.94 843 24.89 28.2 82.7 22 5 41.1
13:25 1014 29.94 844 24.92 26.5 79.7 25 5.3 41.6
13:30 1014 29.94 844 24.92 25.4 77.7 27 5.4 41.8
13:35 1014 29.94 844 24.92 25.3 77.5 27 5 40.9
13:40 1015 29.97 844 24.92 25 77 27 5.1 41.3
13:45 1015 29.97 844 24.92 24.7 76.5 29 5.6 42
13:50 1015 29.97 844 24.92 24.4 76 25 3.3 37.9
13:55 1015 29.97 844 24.92 23.5 74.4 21 0.1 32.1
14:00 1015 29.97 844 24.92 23.5 74.2 21 0.1 32.1
14:05 1015 29.97 844 24.92 22.5 72.6 27 2.8 37
14:10 1015 29.97 844 24.92 22.2 72 18 -3.3 26
14:15 1015 29.97 844 24.92 23.6 74.4 16 -3.6 25.6
14:20 1015 29.97 845 24.95 23.7 74.7 21 0.5 32.9
14:25 1015 29.97 844 24.92 22.8 73 25 1.9 35.3
14:30 1015 29.97 845 24.95 22.5 72.4 26 2.1 35.8
14:35 1016 30 845 24.95 21.9 71.5 27 2.5 36.6
14:40 1016 30 845 24.95 21.4 70.4 31 3.5 38.4
14:45 1016 30 845 24.95 20.9 69.6 30 3.1 37.6
14:50 1016 30 845 24.95 20.6 69 32 3.3 37.9
14:55 1016 30 845 24.95 20.9 69.6 28 1.9 35.4
15:00 1015 29.97 845 24.95 21.1 70.1 29 2.7 36.9
15:05 1015 29.97 844 24.92 21.3 70.3 27 1.6 34.8
15:10 1015 29.97 844 24.92 22 71.5 23 -0.2 31.6
15:15 1015 29.97 844 24.92 22.5 72.4 23 0.5 32.9
15:20 1015 29.97 844 24.92 22.9 73.3 21 -0.4 31.2
15:25 1015 29.97 844 24.92 23.3 73.9 22 0.8 33.5
15:30 1015 29.97 844 24.92 22.7 72.8 29 4 39.3
15:35 1014 29.94 843 24.89 21.5 70.6 31 3.9 38.9
15:40 1014 29.94 843 24.89 20.9 69.7 31 3.6 38.4
15:45 1014 29.94 843 24.89 21.2 70.2 30 2.9 37.3
15:50 1014 29.94 843 24.89 21.9 71.5 31 4 39.2
15:55 1014 29.94 843 24.89 22.4 72.3 28 3.3 37.9
16:00 1014 29.94 843 24.89 23.1 73.5 25 2.1 35.7
16:05 1014 29.94 843 24.89 23.5 74.4 28 4 39.2
16:10 1014 29.94 843 24.89 23.7 74.7 27 3.8 38.8
16:15 1014 29.94 843 24.89 23.5 74.2 26 2.9 37.3
16:20 1014 29.94 843 24.89 23.6 74.5 26 3.4 38.1
16:25 1014 29.94 843 24.89 23.6 74.5 26 3.1 37.5
16:30 1014 29.94 843 24.89 23.5 74.2 27 3.7 38.6
16:35 1014 29.94 843 24.89 23.2 73.8 29 4.5 40.2
16:40 1014 29.94 843 24.89 23.3 74 28 4.1 39.4
16:45 1014 29.94 843 24.89 23.6 74.4 27 3.7 38.7
16:50 1014 29.94 843 24.89 23.4 74.1 28 4 39.2
16:55 1014 29.94 843 24.89 23.2 73.8 28 3.7 38.7
17:00 1014 29.94 843 24.89 23.3 73.9 28 4.2 39.6
17:05 1014 29.94 843 24.89 23.1 73.6 30 4.8 40.6
17:10 1014 29.94 843 24.89 23 73.4 31 5.2 41.4
17:15 1013 29.91 843 24.89 23 73.4 31 5 41
17:20 1013 29.91 843 24.89 22.9 73.2 30 4.5 40.2
17:25 1013 29.91 843 24.89 23 73.5 28 3.8 38.9
17:30 1013 29.91 843 24.89 23.2 73.8 28 4 39.2
17:35 1013 29.91 843 24.89 23.3 74 28 4.1 39.4
17:40 1013 29.91 843 24.89 23.3 74 29 4.5 40.2
17:45 1013 29.91 843 24.89 23.2 73.7 30 4.7 40.4
17:50 1013 29.91 842 24.86 22.9 73.3 30 4.8 40.7
17:55 1013 29.91 843 24.89 22.8 73 30 4.7 40.5
18:00 1014 29.94 843 24.89 22.8 73.1 30 4.5 40
18:05 1014 29.94 843 24.89 22.8 73.1 30 4.4 39.9
18:10 1013 29.91 843 24.89 22.8 73 29 3.9 39.1
18:15 1014 29.94 843 24.89 22.8 73 28 3.5 38.3
18:20 1014 29.94 843 24.89 23 73.4 28 3.8 38.9
18:25 1014 29.94 843 24.89 23.1 73.6 27 3.1 37.7
18:30 1014 29.94 843 24.89 23.3 73.9 27 3.2 37.8
18:35 1014 29.94 843 24.89 23.5 74.4 27 3.8 38.9
18:40 1014 29.94 843 24.89 23.1 73.5 28 3.7 38.6
18:45 1014 29.94 843 24.89 22.7 72.9 29 4.1 39.4
18:50 1014 29.94 843 24.89 22.6 72.6 30 4.2 39.5
18:55 1014 29.94 843 24.89 22.5 72.5 28 3.3 38
19:00 1014 29.94 843 24.89 22.5 72.5 27 2.9 37.3
19:05 1014 29.94 843 24.89 22.5 72.5 27 2.8 37.1
19:10 1014 29.94 843 24.89 22.4 72.3 27 2.9 37.1
19:15 1014 29.94 843 24.89 22.3 72.1 28 3 37.3
19:20 1014 29.94 843 24.89 22.2 71.9 28 3.1 37.5
19:25 1014 29.94 843 24.89 22.1 71.8 29 3.4 38.2
19:30 1014 29.94 843 24.89 21.9 71.5 30 3.8 38.8
19:35 1014 29.94 843 24.89 21.8 71.3 31 4.3 39.8
19:40 1014 29.94 843 24.89 21.6 70.9 32 4.3 39.7
19:45 1014 29.94 843 24.89 21.4 70.6 30 3.2 37.8
19:50 1014 29.94 843 24.89 21.5 70.7 31 3.9 39.1
19:55 1014 29.94 843 24.89 21.3 70.4 32 4.1 39.3
20:00 1014 29.94 843 24.89 21.1 70 30 3 37.4
20:05 1014 29.94 843 24.89 21 69.8 30 2.7 36.9
20:10 1014 29.94 843 24.89 21.1 69.9 30 2.9 37.2
20:15 1014 29.94 843 24.89 20.9 69.6 32 3.6 38.6
20:20 1014 29.94 843 24.89 20.5 68.9 32 3.3 37.9
20:25 1014 29.94 843 24.89 20.4 68.8 33 3.8 38.9
20:30 1014 29.94 843 24.89 20.1 68.2 34 4 39.2
20:35 1014 29.94 843 24.89 19.9 67.9 36 4.4 39.9
20:40 1014 29.94 843 24.89 19.7 67.5 36 4.3 39.8
20:45 1014 29.94 843 24.89 19.4 67 34 3.3 38
20:50 1014 29.94 843 24.89 19.4 67 35 3.7 38.6
20:55 1014 29.94 843 24.89 19.2 66.6 36 4 39.1
21:00 1014 29.94 843 24.89 18.9 66 37 3.9 39
21:05 1014 29.94 843 24.89 18.9 65.9 36 3.6 38.4
21:10 1014 29.94 843 24.89 19 66.2 34 3.1 37.5
21:15 1014 29.94 843 24.89 18.7 65.7 35 3.1 37.5
21:20 1014 29.94 843 24.89 19.1 66.3 33 2.5 36.4
21:25 1014 29.94 843 24.89 19.5 67.1 32 2.5 36.5
21:30 1014 29.94 843 24.89 19.6 67.3 32 2.4 36.4
21:35 1014 29.94 843 24.89 19.5 67.1 34 3.3 37.9
21:40 1014 29.94 843 24.89 18.9 66 38 4.4 39.8
21:45 1014 29.94 843 24.89 18.1 64.6 38 3.7 38.6
21:50 1014 29.94 843 24.89 18 64.4 38 3.6 38.5
21:55 1014 29.94 843 24.89 18.3 64.9 36 2.9 37.2
22:00 1014 29.94 843 24.89 18.5 65.2 35 2.9 37.2
22:05 1014 29.94 843 24.89 18.7 65.6 34 2.5 36.5
22:10 1014 29.94 843 24.89 18.8 65.8 35 3.1 37.6
22:15 1014 29.94 843 24.89 18.4 65.1 36 3.3 38
22:20 1014 29.94 843 24.89 18.1 64.6 36 3.1 37.5
22:25 1014 29.94 843 24.89 18 64.5 37 3.2 37.8
22:30 1014 29.94 843 24.89 17.8 64 38 3.4 38.1
22:35 1014 29.94 843 24.89 17.2 62.9 41 3.8 38.8
22:40 1014 29.94 843 24.89 16.7 62 42 3.9 39
22:45 1014 29.94 843 24.89 16.5 61.8 43 4.1 39.5
22:50 1014 29.94 843 24.89 16.4 61.4 42 3.5 38.3
22:55 1014 29.94 843 24.89 16.6 61.9 41 3.4 38.2
23:00 1014 29.94 843 24.89 16.8 62.2 41 3.5 38.3
23:05 1013 29.91 843 24.89 16.6 62 42 3.8 38.8
23:10 1013 29.91 843 24.89 16.4 61.6 42 3.5 38.4
23:15 1013 29.91 843 24.89 16.7 62 40 3 37.4
23:20 1013 29.91 843 24.89 17 62.6 39 3.1 37.6
23:25 1013 29.91 843 24.89 17.2 62.9 38 3 37.5
23:30 1013 29.91 843 24.89 17.2 62.9 38 3 37.3
23:35 1013 29.91 843 24.89 17.2 63 37 2.6 36.7
23:40 1013 29.91 843 24.89 17.5 63.5 36 2.3 36.1
23:45 1013 29.91 843 24.89 17.7 63.8 35 2.4 36.2
23:50 1013 29.91 843 24.89 17.8 64 35 2.3 36.2
23:55 1013 29.91 843 24.89 17.6 63.7 35 2.1 35.8
24:00 1013 29.91 843 24.89 17.6 63.7 35 2.2 36